sensor_id;sensor_type;location;lat;lon;timestamp;temperature;humidity
19999;DHT22;10160;50.926;4.374;2022-12-18T00:01:57;-2.10;99.90
19999;DHT22;10160;50.926;4.374;2022-12-18T00:04:25;-2.20;99.90
19999;DHT22;10160;50.926;4.374;2022-12-18T00:06:51;-2.20;99.90
19999;DHT22;10160;50.926;4.374;2022-12-18T00:09:18;-2.60;99.90
19999;DHT22;10160;50.926;4.374;2022-12-18T00:11:44;-2.30;99.90
19999;DHT22;10160;50.926;4.374;2022-12-18T00:14:12;-2.30;99.90
19999;DHT22;10160;50.926;4.374;2022-12-18T00:16:38;-2.40;99.90
19999;DHT22;10160;50.926;4.374;2022-12-18T00:19:04;-2.50;99.90
19999;DHT22;10160;50.926;4.374;2022-12-18T00:21:31;-2.70;99.90
19999;DHT22;10160;50.926;4.374;2022-12-18T00:23:58;-2.80;99.90
19999;DHT22;10160;50.926;4.374;2022-12-18T00:26:26;-2.80;99.90
19999;DHT22;10160;50.926;4.374;2022-12-18T00:28:53;-2.80;99.90
19999;DHT22;10160;50.926;4.374;2022-12-18T00:31:21;-2.60;99.90
19999;DHT22;10160;50.926;4.374;2022-12-18T00:33:47;-2.50;99.90
19999;DHT22;10160;50.926;4.374;2022-12-18T00:36:18;-2.30;99.90
19999;DHT22;10160;50.926;4.374;2022-12-18T00:38:45;-2.50;99.90
19999;DHT22;10160;50.926;4.374;2022-12-18T00:41:12;-2.80;99.90
19999;DHT22;10160;50.926;4.374;2022-12-18T00:43:39;-2.90;99.90
19999;DHT22;10160;50.926;4.374;2022-12-18T00:46:05;-3.00;99.90
19999;DHT22;10160;50.926;4.374;2022-12-18T00:48:31;-3.00;99.90
19999;DHT22;10160;50.926;4.374;2022-12-18T00:50:57;-2.90;99.90
19999;DHT22;10160;50.926;4.374;2022-12-18T00:53:23;-2.90;99.90
19999;DHT22;10160;50.926;4.374;2022-12-18T00:55:49;-2.90;99.90
19999;DHT22;10160;50.926;4.374;2022-12-18T00:58:17;-2.60;99.90
19999;DHT22;10160;50.926;4.374;2022-12-18T01:00:43;-2.70;99.90
19999;DHT22;10160;50.926;4.374;2022-12-18T01:03:10;-2.60;99.90
19999;DHT22;10160;50.926;4.374;2022-12-18T01:05:39;-2.60;99.90
19999;DHT22;10160;50.926;4.374;2022-12-18T01:08:05;-2.60;99.90
19999;DHT22;10160;50.926;4.374;2022-12-18T01:10:31;-2.50;99.90
19999;DHT22;10160;50.926;4.374;2022-12-18T01:12:57;-2.40;99.90
19999;DHT22;10160;50.926;4.374;2022-12-18T01:15:22;-2.30;99.90
19999;DHT22;10160;50.926;4.374;2022-12-18T01:17:48;-2.40;99.90
19999;DHT22;10160;50.926;4.374;2022-12-18T01:20:14;-2.70;99.90
19999;DHT22;10160;50.926;4.374;2022-12-18T01:22:40;-2.60;99.90
19999;DHT22;10160;50.926;4.374;2022-12-18T01:25:06;-2.60;99.90
19999;DHT22;10160;50.926;4.374;2022-12-18T01:27:33;-2.50;99.90
19999;DHT22;10160;50.926;4.374;2022-12-18T01:29:59;-2.30;99.90
19999;DHT22;10160;50.926;4.374;2022-12-18T01:32:25;-2.40;99.90
19999;DHT22;10160;50.926;4.374;2022-12-18T01:34:50;-2.30;99.90
19999;DHT22;10160;50.926;4.374;2022-12-18T01:37:16;-2.20;99.90
19999;DHT22;10160;50.926;4.374;2022-12-18T01:39:41;-2.30;99.90
19999;DHT22;10160;50.926;4.374;2022-12-18T01:42:14;-2.50;99.90
19999;DHT22;10160;50.926;4.374;2022-12-18T01:45:01;-2.50;99.90
19999;DHT22;10160;50.926;4.374;2022-12-18T01:47:38;-2.60;99.90
19999;DHT22;10160;50.926;4.374;2022-12-18T01:50:27;-2.60;99.90
19999;DHT22;10160;50.926;4.374;2022-12-18T01:52:56;-2.70;99.90
19999;DHT22;10160;50.926;4.374;2022-12-18T01:55:26;-2.70;99.90
19999;DHT22;10160;50.926;4.374;2022-12-18T01:57:55;-2.90;99.90
19999;DHT22;10160;50.926;4.374;2022-12-18T02:00:22;-3.00;99.90
19999;DHT22;10160;50.926;4.374;2022-12-18T02:02:49;-3.20;99.90
19999;DHT22;10160;50.926;4.374;2022-12-18T02:05:17;-3.00;99.90
19999;DHT22;10160;50.926;4.374;2022-12-18T02:10:21;-2.80;99.90
19999;DHT22;10160;50.926;4.374;2022-12-18T02:18:50;-2.70;99.90
19999;DHT22;10160;50.926;4.374;2022-12-18T02:26:37;-2.60;99.90
19999;DHT22;10160;50.926;4.374;2022-12-18T02:29:22;-2.60;99.90
19999;DHT22;10160;50.926;4.374;2022-12-18T02:31:52;-2.50;99.90
19999;DHT22;10160;50.926;4.374;2022-12-18T02:34:22;-2.50;99.90
19999;DHT22;10160;50.926;4.374;2022-12-18T02:36:50;-2.60;99.90
19999;DHT22;10160;50.926;4.374;2022-12-18T02:39:17;-2.80;99.90
19999;DHT22;10160;50.926;4.374;2022-12-18T02:41:46;-3.20;99.90
19999;DHT22;10160;50.926;4.374;2022-12-18T02:44:13;-3.10;99.90
19999;DHT22;10160;50.926;4.374;2022-12-18T02:46:40;-3.20;99.90
19999;DHT22;10160;50.926;4.374;2022-12-18T02:49:30;-3.50;99.90
19999;DHT22;10160;50.926;4.374;2022-12-18T02:52:17;-3.90;99.90
19999;DHT22;10160;50.926;4.374;2022-12-18T03:00:20;-3.60;99.90
19999;DHT22;10160;50.926;4.374;2022-12-18T03:02:59;-3.70;99.90
19999;DHT22;10160;50.926;4.374;2022-12-18T03:05:43;-3.50;99.90
19999;DHT22;10160;50.926;4.374;2022-12-18T03:08:33;-3.40;99.90
19999;DHT22;10160;50.926;4.374;2022-12-18T03:11:03;-3.40;99.90
19999;DHT22;10160;50.926;4.374;2022-12-18T03:13:55;-3.40;99.90
19999;DHT22;10160;50.926;4.374;2022-12-18T03:16:27;-3.30;99.90
19999;DHT22;10160;50.926;4.374;2022-12-18T03:19:18;-3.60;99.90
19999;DHT22;10160;50.926;4.374;2022-12-18T03:21:55;-3.60;99.90
19999;DHT22;10160;50.926;4.374;2022-12-18T03:24:21;-3.70;99.90
19999;DHT22;10160;50.926;4.374;2022-12-18T03:26:52;-4.00;99.90
19999;DHT22;10160;50.926;4.374;2022-12-18T03:29:29;-4.10;99.90
19999;DHT22;10160;50.926;4.374;2022-12-18T03:32:10;-4.20;99.90
19999;DHT22;10160;50.926;4.374;2022-12-18T03:34:38;-4.20;99.90
19999;DHT22;10160;50.926;4.374;2022-12-18T03:37:06;-4.10;99.90
19999;DHT22;10160;50.926;4.374;2022-12-18T03:39:33;-3.90;99.90
19999;DHT22;10160;50.926;4.374;2022-12-18T03:42:08;-3.80;99.90
19999;DHT22;10160;50.926;4.374;2022-12-18T03:44:48;-3.70;99.90
19999;DHT22;10160;50.926;4.374;2022-12-18T03:47:22;-3.60;99.90
19999;DHT22;10160;50.926;4.374;2022-12-18T03:49:57;-3.60;99.90
19999;DHT22;10160;50.926;4.374;2022-12-18T03:52:38;-3.40;99.90
19999;DHT22;10160;50.926;4.374;2022-12-18T03:55:07;-3.10;99.90
19999;DHT22;10160;50.926;4.374;2022-12-18T03:57:34;-3.00;99.90
19999;DHT22;10160;50.926;4.374;2022-12-18T04:00:15;-2.90;99.90
19999;DHT22;10160;50.926;4.374;2022-12-18T04:02:45;-3.20;99.90
19999;DHT22;10160;50.926;4.374;2022-12-18T04:05:13;-3.00;99.90
19999;DHT22;10160;50.926;4.374;2022-12-18T04:07:40;-3.00;99.90
19999;DHT22;10160;50.926;4.374;2022-12-18T04:10:07;-3.30;99.90
19999;DHT22;10160;50.926;4.374;2022-12-18T04:12:33;-3.30;99.90
19999;DHT22;10160;50.926;4.374;2022-12-18T04:14:59;-3.20;99.90
19999;DHT22;10160;50.926;4.374;2022-12-18T04:17:24;-3.10;99.90
19999;DHT22;10160;50.926;4.374;2022-12-18T04:19:50;-3.00;99.90
19999;DHT22;10160;50.926;4.374;2022-12-18T04:22:16;-3.00;99.90
19999;DHT22;10160;50.926;4.374;2022-12-18T04:24:41;-3.50;99.90
19999;DHT22;10160;50.926;4.374;2022-12-18T04:27:07;-3.40;99.90
19999;DHT22;10160;50.926;4.374;2022-12-18T04:29:33;-3.40;99.90
19999;DHT22;10160;50.926;4.374;2022-12-18T04:31:58;-3.40;99.90
19999;DHT22;10160;50.926;4.374;2022-12-18T04:34:24;-3.50;99.90
19999;DHT22;10160;50.926;4.374;2022-12-18T04:36:50;-3.50;99.90
19999;DHT22;10160;50.926;4.374;2022-12-18T04:39:15;-3.50;99.90
19999;DHT22;10160;50.926;4.374;2022-12-18T04:41:41;-3.50;99.90
19999;DHT22;10160;50.926;4.374;2022-12-18T04:44:07;-3.50;99.90
19999;DHT22;10160;50.926;4.374;2022-12-18T04:46:32;-3.40;99.90
19999;DHT22;10160;50.926;4.374;2022-12-18T04:48:58;-3.30;99.90
19999;DHT22;10160;50.926;4.374;2022-12-18T04:51:23;-3.30;99.90
19999;DHT22;10160;50.926;4.374;2022-12-18T04:53:49;-3.30;99.90
19999;DHT22;10160;50.926;4.374;2022-12-18T04:56:15;-3.40;99.90
19999;DHT22;10160;50.926;4.374;2022-12-18T04:58:43;-3.40;99.90
19999;DHT22;10160;50.926;4.374;2022-12-18T05:01:09;-3.30;99.90
19999;DHT22;10160;50.926;4.374;2022-12-18T05:03:36;-3.50;99.90
19999;DHT22;10160;50.926;4.374;2022-12-18T05:06:02;-3.70;99.90
19999;DHT22;10160;50.926;4.374;2022-12-18T05:08:28;-3.80;99.90
19999;DHT22;10160;50.926;4.374;2022-12-18T05:11:02;-3.90;99.90
19999;DHT22;10160;50.926;4.374;2022-12-18T05:13:28;-3.70;99.90
19999;DHT22;10160;50.926;4.374;2022-12-18T05:15:55;-3.50;99.90
19999;DHT22;10160;50.926;4.374;2022-12-18T05:18:22;-3.60;99.90
19999;DHT22;10160;50.926;4.374;2022-12-18T05:20:49;-3.70;99.90
19999;DHT22;10160;50.926;4.374;2022-12-18T05:23:15;-3.70;99.90
19999;DHT22;10160;50.926;4.374;2022-12-18T05:25:40;-3.60;99.90
19999;DHT22;10160;50.926;4.374;2022-12-18T05:28:06;-3.50;99.90
19999;DHT22;10160;50.926;4.374;2022-12-18T05:30:31;-3.50;99.90
19999;DHT22;10160;50.926;4.374;2022-12-18T05:32:57;-3.70;99.90
19999;DHT22;10160;50.926;4.374;2022-12-18T05:35:23;-3.90;99.90
19999;DHT22;10160;50.926;4.374;2022-12-18T05:37:48;-3.70;99.90
19999;DHT22;10160;50.926;4.374;2022-12-18T05:40:14;-3.80;99.90
19999;DHT22;10160;50.926;4.374;2022-12-18T05:42:40;-3.90;99.90
19999;DHT22;10160;50.926;4.374;2022-12-18T05:45:06;-3.60;99.90
19999;DHT22;10160;50.926;4.374;2022-12-18T05:47:31;-3.70;99.90
19999;DHT22;10160;50.926;4.374;2022-12-18T05:49:57;-3.80;99.90
19999;DHT22;10160;50.926;4.374;2022-12-18T05:52:23;-4.00;99.90
19999;DHT22;10160;50.926;4.374;2022-12-18T05:54:48;-3.80;99.90
19999;DHT22;10160;50.926;4.374;2022-12-18T05:57:14;-3.70;99.90
19999;DHT22;10160;50.926;4.374;2022-12-18T05:59:40;-3.80;99.90
19999;DHT22;10160;50.926;4.374;2022-12-18T06:02:05;-3.90;99.90
19999;DHT22;10160;50.926;4.374;2022-12-18T06:04:31;-3.90;99.90
19999;DHT22;10160;50.926;4.374;2022-12-18T06:06:57;-3.90;99.90
19999;DHT22;10160;50.926;4.374;2022-12-18T06:09:23;-3.70;99.90
19999;DHT22;10160;50.926;4.374;2022-12-18T06:11:49;-3.60;99.90
19999;DHT22;10160;50.926;4.374;2022-12-18T06:14:16;-3.80;99.90
19999;DHT22;10160;50.926;4.374;2022-12-18T06:16:42;-4.00;99.90
19999;DHT22;10160;50.926;4.374;2022-12-18T06:19:12;-4.00;99.90
19999;DHT22;10160;50.926;4.374;2022-12-18T06:21:38;-3.80;99.90
19999;DHT22;10160;50.926;4.374;2022-12-18T06:24:04;-3.90;99.90
19999;DHT22;10160;50.926;4.374;2022-12-18T06:26:30;-3.70;99.90
19999;DHT22;10160;50.926;4.374;2022-12-18T06:28:56;-3.60;99.90
19999;DHT22;10160;50.926;4.374;2022-12-18T06:31:21;-3.70;99.90
19999;DHT22;10160;50.926;4.374;2022-12-18T06:33:47;-3.70;99.90
19999;DHT22;10160;50.926;4.374;2022-12-18T06:36:14;-3.60;99.90
19999;DHT22;10160;50.926;4.374;2022-12-18T06:38:41;-3.50;99.90
19999;DHT22;10160;50.926;4.374;2022-12-18T06:41:15;-3.30;99.90
19999;DHT22;10160;50.926;4.374;2022-12-18T06:43:41;-3.50;99.90
19999;DHT22;10160;50.926;4.374;2022-12-18T06:46:07;-3.60;99.90
19999;DHT22;10160;50.926;4.374;2022-12-18T06:48:33;-3.40;99.90
19999;DHT22;10160;50.926;4.374;2022-12-18T06:50:58;-3.50;99.90
19999;DHT22;10160;50.926;4.374;2022-12-18T06:53:24;-3.30;99.90
19999;DHT22;10160;50.926;4.374;2022-12-18T06:55:50;-3.30;99.90
19999;DHT22;10160;50.926;4.374;2022-12-18T06:58:16;-3.20;99.90
19999;DHT22;10160;50.926;4.374;2022-12-18T07:00:42;-3.50;99.90
19999;DHT22;10160;50.926;4.374;2022-12-18T07:03:08;-3.50;99.90
19999;DHT22;10160;50.926;4.374;2022-12-18T07:05:33;-3.30;99.90
19999;DHT22;10160;50.926;4.374;2022-12-18T07:08:00;-3.20;99.90
19999;DHT22;10160;50.926;4.374;2022-12-18T07:10:25;-3.00;99.90
19999;DHT22;10160;50.926;4.374;2022-12-18T07:12:51;-2.90;99.90
19999;DHT22;10160;50.926;4.374;2022-12-18T07:15:17;-3.00;99.90
19999;DHT22;10160;50.926;4.374;2022-12-18T07:17:42;-2.90;99.90
19999;DHT22;10160;50.926;4.374;2022-12-18T07:20:09;-3.00;99.90
19999;DHT22;10160;50.926;4.374;2022-12-18T07:22:35;-3.10;99.90
19999;DHT22;10160;50.926;4.374;2022-12-18T07:25:00;-3.00;99.90
19999;DHT22;10160;50.926;4.374;2022-12-18T07:27:26;-3.00;99.90
19999;DHT22;10160;50.926;4.374;2022-12-18T07:29:51;-3.00;99.90
19999;DHT22;10160;50.926;4.374;2022-12-18T07:32:17;-3.10;99.90
19999;DHT22;10160;50.926;4.374;2022-12-18T07:34:43;-3.10;99.90
19999;DHT22;10160;50.926;4.374;2022-12-18T07:37:09;-2.90;99.90
19999;DHT22;10160;50.926;4.374;2022-12-18T07:39:35;-2.90;99.90
19999;DHT22;10160;50.926;4.374;2022-12-18T07:42:00;-2.80;99.90
19999;DHT22;10160;50.926;4.374;2022-12-18T07:44:44;-2.90;99.90
19999;DHT22;10160;50.926;4.374;2022-12-18T07:47:10;-3.00;99.90
19999;DHT22;10160;50.926;4.374;2022-12-18T07:49:35;-2.90;99.90
19999;DHT22;10160;50.926;4.374;2022-12-18T07:52:01;-2.90;99.90
19999;DHT22;10160;50.926;4.374;2022-12-18T07:54:40;-2.80;99.90
19999;DHT22;10160;50.926;4.374;2022-12-18T07:57:06;-2.90;99.90
19999;DHT22;10160;50.926;4.374;2022-12-18T07:59:32;-2.80;99.90
19999;DHT22;10160;50.926;4.374;2022-12-18T08:01:57;-2.80;99.90
19999;DHT22;10160;50.926;4.374;2022-12-18T08:04:24;-2.80;99.90
19999;DHT22;10160;50.926;4.374;2022-12-18T08:06:50;-2.70;99.90
19999;DHT22;10160;50.926;4.374;2022-12-18T08:09:15;-2.70;99.90
19999;DHT22;10160;50.926;4.374;2022-12-18T08:11:41;-2.70;99.90
19999;DHT22;10160;50.926;4.374;2022-12-18T08:14:07;-3.20;99.90
19999;DHT22;10160;50.926;4.374;2022-12-18T08:16:33;-3.40;99.90
19999;DHT22;10160;50.926;4.374;2022-12-18T08:18:58;-3.10;99.90
19999;DHT22;10160;50.926;4.374;2022-12-18T08:21:27;-3.30;99.90
19999;DHT22;10160;50.926;4.374;2022-12-18T08:23:54;-3.50;99.90
19999;DHT22;10160;50.926;4.374;2022-12-18T08:26:21;-3.50;99.90
19999;DHT22;10160;50.926;4.374;2022-12-18T08:28:47;-3.70;99.90
19999;DHT22;10160;50.926;4.374;2022-12-18T08:31:13;-3.60;99.90
19999;DHT22;10160;50.926;4.374;2022-12-18T08:33:42;-3.30;99.90
19999;DHT22;10160;50.926;4.374;2022-12-18T08:36:09;-2.80;99.90
19999;DHT22;10160;50.926;4.374;2022-12-18T08:38:35;-2.30;99.90
19999;DHT22;10160;50.926;4.374;2022-12-18T08:41:06;-2.00;99.90
19999;DHT22;10160;50.926;4.374;2022-12-18T08:43:33;-2.00;99.90
19999;DHT22;10160;50.926;4.374;2022-12-18T08:46:18;-2.40;99.90
19999;DHT22;10160;50.926;4.374;2022-12-18T08:48:44;-2.40;99.90
19999;DHT22;10160;50.926;4.374;2022-12-18T08:51:10;-2.10;99.90
19999;DHT22;10160;50.926;4.374;2022-12-18T08:53:36;-1.80;99.90
19999;DHT22;10160;50.926;4.374;2022-12-18T08:56:02;-2.20;99.90
19999;DHT22;10160;50.926;4.374;2022-12-18T08:58:37;-2.30;99.90
19999;DHT22;10160;50.926;4.374;2022-12-18T09:01:05;-2.40;99.90
19999;DHT22;10160;50.926;4.374;2022-12-18T09:03:31;-2.50;99.90
19999;DHT22;10160;50.926;4.374;2022-12-18T09:05:57;-2.30;99.90
19999;DHT22;10160;50.926;4.374;2022-12-18T09:08:22;-2.40;99.90
19999;DHT22;10160;50.926;4.374;2022-12-18T09:10:49;-2.50;99.90
19999;DHT22;10160;50.926;4.374;2022-12-18T09:13:16;-2.20;99.90
19999;DHT22;10160;50.926;4.374;2022-12-18T09:15:48;-2.10;99.90
19999;DHT22;10160;50.926;4.374;2022-12-18T09:18:16;-2.00;99.90
19999;DHT22;10160;50.926;4.374;2022-12-18T09:20:42;-1.90;99.90
19999;DHT22;10160;50.926;4.374;2022-12-18T09:23:08;-1.80;99.90
19999;DHT22;10160;50.926;4.374;2022-12-18T09:25:35;-1.60;99.90
19999;DHT22;10160;50.926;4.374;2022-12-18T09:28:12;-1.20;99.90
19999;DHT22;10160;50.926;4.374;2022-12-18T09:30:42;-1.20;99.90
19999;DHT22;10160;50.926;4.374;2022-12-18T09:33:08;-1.00;99.90
19999;DHT22;10160;50.926;4.374;2022-12-18T09:35:36;-1.10;99.90
19999;DHT22;10160;50.926;4.374;2022-12-18T09:38:02;-0.90;99.90
19999;DHT22;10160;50.926;4.374;2022-12-18T09:40:34;-1.00;99.90
19999;DHT22;10160;50.926;4.374;2022-12-18T09:43:04;-0.90;99.90
19999;DHT22;10160;50.926;4.374;2022-12-18T09:45:43;-1.00;99.90
19999;DHT22;10160;50.926;4.374;2022-12-18T09:48:31;-1.20;99.90
19999;DHT22;10160;50.926;4.374;2022-12-18T09:51:02;-0.90;99.90
19999;DHT22;10160;50.926;4.374;2022-12-18T09:53:33;-1.00;99.90
19999;DHT22;10160;50.926;4.374;2022-12-18T09:56:02;-1.30;99.90
19999;DHT22;10160;50.926;4.374;2022-12-18T09:58:36;-1.20;99.90
19999;DHT22;10160;50.926;4.374;2022-12-18T10:01:14;-1.10;99.90
19999;DHT22;10160;50.926;4.374;2022-12-18T10:03:41;-1.10;99.90
19999;DHT22;10160;50.926;4.374;2022-12-18T10:08:45;-1.30;99.90
19999;DHT22;10160;50.926;4.374;2022-12-18T10:13:49;-1.40;99.90
19999;DHT22;10160;50.926;4.374;2022-12-18T10:19:24;-1.10;99.90
19999;DHT22;10160;50.926;4.374;2022-12-18T10:28:24;-0.20;99.90
19999;DHT22;10160;50.926;4.374;2022-12-18T10:30:50;-0.50;99.90
19999;DHT22;10160;50.926;4.374;2022-12-18T10:33:22;-0.90;99.90
19999;DHT22;10160;50.926;4.374;2022-12-18T10:35:50;-1.00;99.90
19999;DHT22;10160;50.926;4.374;2022-12-18T10:40:51;-0.80;99.90
19999;DHT22;10160;50.926;4.374;2022-12-18T10:43:24;-0.90;99.90
19999;DHT22;10160;50.926;4.374;2022-12-18T10:48:57;-1.00;99.90
19999;DHT22;10160;50.926;4.374;2022-12-18T10:51:29;-1.10;99.90
19999;DHT22;10160;50.926;4.374;2022-12-18T10:54:06;-1.10;99.90
19999;DHT22;10160;50.926;4.374;2022-12-18T10:56:38;-0.80;99.90
19999;DHT22;10160;50.926;4.374;2022-12-18T10:59:07;-0.50;99.90
19999;DHT22;10160;50.926;4.374;2022-12-18T11:01:56;-0.10;99.90
19999;DHT22;10160;50.926;4.374;2022-12-18T11:04:30;0.20;99.90
19999;DHT22;10160;50.926;4.374;2022-12-18T11:09:39;0.60;99.90
19999;DHT22;10160;50.926;4.374;2022-12-18T11:14:46;0.30;99.90
19999;DHT22;10160;50.926;4.374;2022-12-18T11:17:38;0.00;99.90
19999;DHT22;10160;50.926;4.374;2022-12-18T11:20:20;0.20;99.90
19999;DHT22;10160;50.926;4.374;2022-12-18T11:23:04;0.40;99.90
19999;DHT22;10160;50.926;4.374;2022-12-18T11:25:32;0.70;99.90
19999;DHT22;10160;50.926;4.374;2022-12-18T11:28:04;0.90;99.90
19999;DHT22;10160;50.926;4.374;2022-12-18T11:30:32;0.80;99.90
19999;DHT22;10160;50.926;4.374;2022-12-18T11:35:47;1.10;99.90
19999;DHT22;10160;50.926;4.374;2022-12-18T11:38:24;1.30;99.90
19999;DHT22;10160;50.926;4.374;2022-12-18T11:41:02;1.20;99.90
19999;DHT22;10160;50.926;4.374;2022-12-18T11:43:41;0.90;99.90
19999;DHT22;10160;50.926;4.374;2022-12-18T11:46:17;0.80;99.90
19999;DHT22;10160;50.926;4.374;2022-12-18T11:49:25;0.60;99.90
19999;DHT22;10160;50.926;4.374;2022-12-18T11:52:00;0.50;99.90
19999;DHT22;10160;50.926;4.374;2022-12-18T11:54:27;0.30;99.90
19999;DHT22;10160;50.926;4.374;2022-12-18T12:03:07;0.40;99.90
19999;DHT22;10160;50.926;4.374;2022-12-18T12:17:03;0.70;99.90
19999;DHT22;10160;50.926;4.374;2022-12-18T12:22:08;1.20;99.90
19999;DHT22;10160;50.926;4.374;2022-12-18T12:27:34;1.60;99.90
19999;DHT22;10160;50.926;4.374;2022-12-18T12:30:20;1.80;99.90
19999;DHT22;10160;50.926;4.374;2022-12-18T12:41:07;1.80;99.90
19999;DHT22;10160;50.926;4.374;2022-12-18T12:43:56;1.80;99.90
19999;DHT22;10160;50.926;4.374;2022-12-18T12:46:24;1.90;99.90
19999;DHT22;10160;50.926;4.374;2022-12-18T12:49:00;1.90;99.90
19999;DHT22;10160;50.926;4.374;2022-12-18T12:51:38;2.00;99.90
19999;DHT22;10160;50.926;4.374;2022-12-18T12:54:14;2.00;99.90
19999;DHT22;10160;50.926;4.374;2022-12-18T12:57:12;1.90;99.90
19999;DHT22;10160;50.926;4.374;2022-12-18T13:00:01;2.20;99.90
19999;DHT22;10160;50.926;4.374;2022-12-18T13:02:45;2.20;99.90
19999;DHT22;10160;50.926;4.374;2022-12-18T13:08:05;2.00;99.90
19999;DHT22;10160;50.926;4.374;2022-12-18T13:10:37;1.90;99.90
19999;DHT22;10160;50.926;4.374;2022-12-18T13:13:06;2.00;99.90
19999;DHT22;10160;50.926;4.374;2022-12-18T13:15:45;2.10;99.90
19999;DHT22;10160;50.926;4.374;2022-12-18T13:18:19;2.20;99.90
19999;DHT22;10160;50.926;4.374;2022-12-18T13:21:01;2.20;99.90
19999;DHT22;10160;50.926;4.374;2022-12-18T13:23:31;2.10;99.90
19999;DHT22;10160;50.926;4.374;2022-12-18T13:28:53;2.20;99.90
19999;DHT22;10160;50.926;4.374;2022-12-18T13:34:20;1.90;99.90
19999;DHT22;10160;50.926;4.374;2022-12-18T13:36:47;1.90;99.90
19999;DHT22;10160;50.926;4.374;2022-12-18T13:47:03;2.00;99.90
19999;DHT22;10160;50.926;4.374;2022-12-18T13:49:41;1.90;99.90
19999;DHT22;10160;50.926;4.374;2022-12-18T13:52:20;1.80;99.90
19999;DHT22;10160;50.926;4.374;2022-12-18T13:54:57;1.90;99.90
19999;DHT22;10160;50.926;4.374;2022-12-18T13:57:31;2.00;99.90
19999;DHT22;10160;50.926;4.374;2022-12-18T13:59:58;2.00;99.90
19999;DHT22;10160;50.926;4.374;2022-12-18T14:02:28;2.00;99.90
19999;DHT22;10160;50.926;4.374;2022-12-18T14:04:54;1.90;99.90
19999;DHT22;10160;50.926;4.374;2022-12-18T14:07:25;1.90;99.90
19999;DHT22;10160;50.926;4.374;2022-12-18T14:09:58;2.00;99.90
19999;DHT22;10160;50.926;4.374;2022-12-18T14:12:28;2.00;99.90
19999;DHT22;10160;50.926;4.374;2022-12-18T14:20:46;2.10;99.90
19999;DHT22;10160;50.926;4.374;2022-12-18T14:23:34;1.80;99.90
19999;DHT22;10160;50.926;4.374;2022-12-18T14:26:02;1.90;99.90
19999;DHT22;10160;50.926;4.374;2022-12-18T14:28:28;2.00;99.90
19999;DHT22;10160;50.926;4.374;2022-12-18T14:30:55;1.90;99.90
19999;DHT22;10160;50.926;4.374;2022-12-18T14:33:24;1.80;99.90
19999;DHT22;10160;50.926;4.374;2022-12-18T14:36:00;1.80;99.90
19999;DHT22;10160;50.926;4.374;2022-12-18T14:38:35;1.80;99.90
19999;DHT22;10160;50.926;4.374;2022-12-18T14:41:09;1.90;99.90
19999;DHT22;10160;50.926;4.374;2022-12-18T14:43:37;1.70;99.90
19999;DHT22;10160;50.926;4.374;2022-12-18T14:46:05;1.80;99.90
19999;DHT22;10160;50.926;4.374;2022-12-18T14:48:38;1.80;99.90
19999;DHT22;10160;50.926;4.374;2022-12-18T14:53:43;2.00;99.90
19999;DHT22;10160;50.926;4.374;2022-12-18T14:56:36;1.90;99.90
19999;DHT22;10160;50.926;4.374;2022-12-18T15:02:10;2.10;99.90
19999;DHT22;10160;50.926;4.374;2022-12-18T15:04:40;2.00;99.90
19999;DHT22;10160;50.926;4.374;2022-12-18T15:07:22;2.00;99.90
19999;DHT22;10160;50.926;4.374;2022-12-18T15:15:04;1.70;99.90
19999;DHT22;10160;50.926;4.374;2022-12-18T15:17:30;1.90;99.90
19999;DHT22;10160;50.926;4.374;2022-12-18T15:20:09;1.90;99.90
19999;DHT22;10160;50.926;4.374;2022-12-18T15:22:36;1.80;99.90
19999;DHT22;10160;50.926;4.374;2022-12-18T15:25:03;1.90;99.90
19999;DHT22;10160;50.926;4.374;2022-12-18T15:27:46;2.00;99.90
19999;DHT22;10160;50.926;4.374;2022-12-18T15:32:43;2.10;99.90
19999;DHT22;10160;50.926;4.374;2022-12-18T15:35:17;2.10;99.90
19999;DHT22;10160;50.926;4.374;2022-12-18T15:37:44;2.10;99.90
19999;DHT22;10160;50.926;4.374;2022-12-18T15:40:18;2.00;99.90
19999;DHT22;10160;50.926;4.374;2022-12-18T15:42:45;2.00;99.90
19999;DHT22;10160;50.926;4.374;2022-12-18T15:45:29;2.10;99.90
19999;DHT22;10160;50.926;4.374;2022-12-18T15:47:55;2.20;99.90
19999;DHT22;10160;50.926;4.374;2022-12-18T15:50:21;2.10;99.90
19999;DHT22;10160;50.926;4.374;2022-12-18T15:52:49;2.30;99.90
19999;DHT22;10160;50.926;4.374;2022-12-18T15:55:17;2.40;99.90
19999;DHT22;10160;50.926;4.374;2022-12-18T15:58:02;2.30;99.90
19999;DHT22;10160;50.926;4.374;2022-12-18T16:00:28;2.20;99.90
19999;DHT22;10160;50.926;4.374;2022-12-18T16:02:54;2.30;99.90
19999;DHT22;10160;50.926;4.374;2022-12-18T16:05:21;2.20;99.90
19999;DHT22;10160;50.926;4.374;2022-12-18T16:07:47;2.20;99.90
19999;DHT22;10160;50.926;4.374;2022-12-18T16:10:13;2.10;99.90
19999;DHT22;10160;50.926;4.374;2022-12-18T16:12:39;2.20;99.90
19999;DHT22;10160;50.926;4.374;2022-12-18T16:15:06;2.30;99.90
19999;DHT22;10160;50.926;4.374;2022-12-18T16:17:31;2.10;99.90
19999;DHT22;10160;50.926;4.374;2022-12-18T16:19:57;2.20;99.90
19999;DHT22;10160;50.926;4.374;2022-12-18T16:22:28;2.20;99.90
19999;DHT22;10160;50.926;4.374;2022-12-18T16:24:54;2.20;99.90
19999;DHT22;10160;50.926;4.374;2022-12-18T16:27:21;2.20;99.90
19999;DHT22;10160;50.926;4.374;2022-12-18T16:29:47;2.10;99.90
19999;DHT22;10160;50.926;4.374;2022-12-18T16:32:15;2.20;99.90
19999;DHT22;10160;50.926;4.374;2022-12-18T16:34:41;2.30;99.90
19999;DHT22;10160;50.926;4.374;2022-12-18T16:37:09;2.40;99.90
19999;DHT22;10160;50.926;4.374;2022-12-18T16:39:36;2.30;99.90
19999;DHT22;10160;50.926;4.374;2022-12-18T16:42:04;2.30;99.90
19999;DHT22;10160;50.926;4.374;2022-12-18T16:44:30;2.50;99.90
19999;DHT22;10160;50.926;4.374;2022-12-18T16:46:55;2.40;99.90
19999;DHT22;10160;50.926;4.374;2022-12-18T16:49:27;2.40;99.90
19999;DHT22;10160;50.926;4.374;2022-12-18T16:51:53;2.50;99.90
19999;DHT22;10160;50.926;4.374;2022-12-18T16:54:19;2.50;99.90
19999;DHT22;10160;50.926;4.374;2022-12-18T16:56:44;2.40;99.90
19999;DHT22;10160;50.926;4.374;2022-12-18T16:59:12;2.40;99.90
19999;DHT22;10160;50.926;4.374;2022-12-18T17:01:38;2.40;99.90
19999;DHT22;10160;50.926;4.374;2022-12-18T17:04:05;2.40;99.90
19999;DHT22;10160;50.926;4.374;2022-12-18T17:06:34;2.40;99.90
19999;DHT22;10160;50.926;4.374;2022-12-18T17:09:02;2.50;99.90
19999;DHT22;10160;50.926;4.374;2022-12-18T17:11:31;2.50;99.90
19999;DHT22;10160;50.926;4.374;2022-12-18T17:13:57;2.50;99.90
19999;DHT22;10160;50.926;4.374;2022-12-18T17:16:24;2.60;99.90
19999;DHT22;10160;50.926;4.374;2022-12-18T17:18:51;2.70;99.90
19999;DHT22;10160;50.926;4.374;2022-12-18T17:21:17;2.80;99.90
19999;DHT22;10160;50.926;4.374;2022-12-18T17:23:43;3.00;99.90
19999;DHT22;10160;50.926;4.374;2022-12-18T17:26:09;2.90;99.90
19999;DHT22;10160;50.926;4.374;2022-12-18T17:28:37;2.80;99.90
19999;DHT22;10160;50.926;4.374;2022-12-18T17:31:13;2.70;99.90
19999;DHT22;10160;50.926;4.374;2022-12-18T17:33:41;2.80;99.90
19999;DHT22;10160;50.926;4.374;2022-12-18T17:36:07;2.90;99.90
19999;DHT22;10160;50.926;4.374;2022-12-18T17:38:33;2.90;99.90
19999;DHT22;10160;50.926;4.374;2022-12-18T17:41:03;2.70;99.90
19999;DHT22;10160;50.926;4.374;2022-12-18T17:43:30;2.70;99.90
19999;DHT22;10160;50.926;4.374;2022-12-18T17:45:56;2.40;99.90